La Crosse Municipal Airport
KLSE : rendu visible

Aérodrome :











RETROUVEZ-NOUS SUR...

 
LOGIN :

S'inscrire | Disclaimer

   EN    FR    IT 

 









Légende :    VFR   VFR Marginal   IFR   IFR Intensif   IFR Très Intensif
Visi : 
Plafond : 
>= 8 km
>= 3000ft
5 à 8 km
1000 à 3000 ft
1500m à 5 km
500 à 1000 ft
800 à 1500m
200 à 500 ft
< 800m
< 200 ft
Symboles :   Orages  Brouillard  Fortes neiges  Fortes précipitations  Vent > 20 kt






- Altitude de l'aérodrome : 655 ft
- Code IATA : LSE


KLSE - La Crosse Municipal

DERNIER METAR :
  • 090753Z AUTO 12003KT 10SM CLR 26/22 A2984 RMK AO2 SLP088 T02610222

METARs EXPIRÉS :
  • 090653Z AUTO 15006KT 10SM CLR 27/23 A2980 RMK AO2 SLP076 T02720228
  • 090553Z AUTO 18006KT 10SM CLR 28/23 A2980 RMK AO2 SLP078 T02780233 10333 20278 403500211 57002

TAF KLSE
Valide du 09 à 06h jusqu'au 10 à 06h UTC


090520Z 0906/1006 18009KT P6SM SCT250
FM091800 18008KT P6SM VCTS BKN070CB
FM100300 34005KT P6SM BKN120
FIR KZMP / Amérique du Nord



MET'MAP, la Météo Aéronautique d'un coup d'oeil ! - Copyright ORBIFLY Décembre 2007 - Disclaimer

ORBIFLY MET'MAP TEAM :

Programmation & Développement : Alexandra Zaïnal
Sur une idée originale de : Baudouin d'Aumeries
Assistance à la programmation : Marc-Olivier Méhu
Soutien technique & logistique : Manuel Goepfert

Contact : metmap@orbifly.com




SOURCES & CREDITS :

   NOAA       Earth
Advisory